Terminal Aerodrome Forecast
Issued by NWS Duluth, MN

Home | Current Version | Previous Version | Text Only | Print | Product List | Glossary On
Versions: 1 2 3 4 5 6 7 8 9 10 11 12 13 14 15 16 17 18 19 20 21 22 23 24 25 26
000
FTUS43 KDLH 260500
TAFDLH
TAF
KDLH 260532Z 2606/2706 24004KT P6SM OVC015
     FM261300 04005KT 5SM -SN BKN018 OVC025
     FM261500 01007KT 1 1/2SM -SN BR OVC015
     FM262200 34012KT P6SM -SN OVC020
     FM270100 34012KT P6SM SCT025=

USA.gov is the U.S. government's official web portal to all federal, state and local government web resources and services.